Terminal Aerodrome Forecast
Issued by NWS

Home | Current Version | Previous Version | Text Only | Print | Product List | Glossary On
Versions: 1 2 3 4 5 6 7 8 9 10 11 12 13 14 15 16 17 18 19 20 21 22 23 24 25 26
000
FTUS41 KBUF 191139
TAFJHW
TAF
KJHW 191139Z 1912/2012 31015G25KT 4SM -SN SCT008 BKN015 OVC025
     FM191300 30017G27KT 2SM -SN BKN008
      TEMPO 1913/1917 4SM -SN SCT008 BKN015
     FM191700 29017G27KT 2SM -SN SCT008 OVC015
     FM192300 29015G25KT 1/2SM SN BLSN BKN008
      AMD LTD TO CLD VIS AND WIND=

USA.gov is the U.S. government's official web portal to all federal, state and local government web resources and services.